createdAt,value
2022-11-26T00:02:15.991Z,6.90
2022-11-26T00:04:44.461Z,6.90
2022-11-26T00:07:12.526Z,6.80
2022-11-26T00:09:40.585Z,6.80
2022-11-26T00:12:17.293Z,6.80
2022-11-26T00:14:45.425Z,6.80
2022-11-26T00:17:14.160Z,6.80
2022-11-26T00:19:42.080Z,6.80
2022-11-26T00:22:16.063Z,6.80
2022-11-26T00:24:44.377Z,6.70
2022-11-26T00:27:12.633Z,6.70
2022-11-26T00:29:42.006Z,6.70
2022-11-26T00:32:16.143Z,6.60
2022-11-26T00:34:44.111Z,6.60
2022-11-26T00:37:19.151Z,6.60
2022-11-26T00:39:47.087Z,6.60
2022-11-26T00:42:15.016Z,6.60
2022-11-26T00:44:44.762Z,6.60
2022-11-26T00:47:12.660Z,6.60
2022-11-26T00:49:40.509Z,6.60
2022-11-26T00:52:21.295Z,6.60
2022-11-26T00:54:49.241Z,6.60
2022-11-26T00:57:17.267Z,6.60
2022-11-26T00:59:46.477Z,6.60
2022-11-26T01:02:14.606Z,6.60
2022-11-26T01:04:42.639Z,6.60
2022-11-26T01:07:11.373Z,6.60
2022-11-26T01:09:39.787Z,6.60
2022-11-26T01:12:08.783Z,6.60
2022-11-26T01:14:37.162Z,6.60
2022-11-26T01:17:06.928Z,6.50
2022-11-26T01:19:36.431Z,6.50
2022-11-26T01:22:04.414Z,6.50
2022-11-26T01:24:32.386Z,6.50
2022-11-26T01:27:00.317Z,6.50
2022-11-26T01:29:28.245Z,6.40
2022-11-26T01:31:56.282Z,6.40
2022-11-26T01:34:25.806Z,6.40
2022-11-26T01:36:53.895Z,6.30
2022-11-26T01:39:23.524Z,6.30
2022-11-26T01:41:58.134Z,6.30
2022-11-26T01:44:27.762Z,6.30
2022-11-26T01:46:55.928Z,6.30
2022-11-26T01:49:26.091Z,6.30
2022-11-26T01:51:57.996Z,6.30
2022-11-26T01:54:25.949Z,6.30
2022-11-26T01:56:55.942Z,6.30
2022-11-26T01:59:27.303Z,6.30
2022-11-26T02:01:56.435Z,6.30
2022-11-26T02:04:28.496Z,6.30
2022-11-26T02:06:57.446Z,6.30
2022-11-26T02:09:26.942Z,6.30
2022-11-26T02:11:55.211Z,6.30
2022-11-26T02:14:24.947Z,6.30
2022-11-26T02:17:20.372Z,6.30
2022-11-26T02:20:09.501Z,6.30
2022-11-26T02:22:51.033Z,6.30
2022-11-26T02:25:21.805Z,6.30
2022-11-26T02:28:06.160Z,6.30
2022-11-26T02:30:37.511Z,6.30
2022-11-26T02:33:07.689Z,6.30
2022-11-26T02:35:40.006Z,6.30
2022-11-26T02:38:09.447Z,6.30
2022-11-26T02:40:37.556Z,6.30
2022-11-26T02:43:05.612Z,6.30
2022-11-26T02:45:36.252Z,6.30
2022-11-26T02:48:06.382Z,6.30
2022-11-26T02:50:36.303Z,6.30
2022-11-26T02:53:04.538Z,6.20
2022-11-26T02:55:33.505Z,6.30
2022-11-26T02:58:01.745Z,6.30
2022-11-26T03:00:29.841Z,6.30
2022-11-26T03:03:01.706Z,6.30
2022-11-26T03:05:32.207Z,6.30
2022-11-26T03:08:00.982Z,6.30
2022-11-26T03:10:29.305Z,6.30
2022-11-26T03:12:57.481Z,6.30
2022-11-26T03:15:25.671Z,6.30
2022-11-26T03:17:53.580Z,6.30
2022-11-26T03:20:22.823Z,6.20
2022-11-26T03:22:50.976Z,6.30
2022-11-26T03:25:19.304Z,6.30
2022-11-26T03:27:47.153Z,6.30
2022-11-26T03:30:15.489Z,6.30
2022-11-26T03:32:43.485Z,6.30
2022-11-26T03:35:11.344Z,6.30
2022-11-26T03:37:40.751Z,6.30
2022-11-26T03:40:09.531Z,6.30
2022-11-26T03:42:37.455Z,6.30
2022-11-26T03:45:05.820Z,6.20
2022-11-26T03:47:33.953Z,6.20
2022-11-26T03:50:01.908Z,6.20
2022-11-26T03:52:29.847Z,6.20
2022-11-26T03:54:59.250Z,6.20
2022-11-26T03:57:27.187Z,6.20
2022-11-26T03:59:55.284Z,6.20
2022-11-26T04:02:23.193Z,6.20
2022-11-26T04:04:51.291Z,6.20
2022-11-26T04:07:19.382Z,6.20
2022-11-26T04:09:47.309Z,6.10
2022-11-26T04:12:16.740Z,6.10
2022-11-26T04:14:44.704Z,6.10
2022-11-26T04:17:12.676Z,6.10
2022-11-26T04:19:40.693Z,6.10
2022-11-26T04:22:08.739Z,6.10
2022-11-26T04:24:37.054Z,6.00
2022-11-26T04:27:05.356Z,6.10
2022-11-26T04:29:36.304Z,6.00
2022-11-26T04:32:04.967Z,6.00
2022-11-26T04:34:33.090Z,6.10
2022-11-26T04:37:00.961Z,6.00
2022-11-26T04:39:29.155Z,6.00
2022-11-26T04:41:57.063Z,6.00
2022-11-26T04:44:25.091Z,6.00
2022-11-26T04:46:54.391Z,6.00
2022-11-26T04:49:22.378Z,6.00
2022-11-26T04:51:50.358Z,6.00
2022-11-26T04:54:18.238Z,6.00
2022-11-26T04:56:46.271Z,6.00
2022-11-26T04:59:14.303Z,6.00
2022-11-26T05:01:42.311Z,6.00
2022-11-26T05:04:11.768Z,6.00
2022-11-26T05:06:39.949Z,6.00
2022-11-26T05:09:07.805Z,6.00
2022-11-26T05:11:35.717Z,6.00
2022-11-26T05:14:03.717Z,6.00
2022-11-26T05:16:31.678Z,6.00
2022-11-26T05:18:59.748Z,6.00
2022-11-26T05:21:29.274Z,6.00
2022-11-26T05:23:57.292Z,6.00
2022-11-26T05:26:25.374Z,6.00
2022-11-26T05:28:53.461Z,6.00
2022-11-26T05:31:21.420Z,6.00
2022-11-26T05:33:49.464Z,6.00
2022-11-26T05:36:17.415Z,6.00
2022-11-26T05:38:46.667Z,6.00
2022-11-26T05:41:14.761Z,6.00
2022-11-26T05:43:42.757Z,6.00
2022-11-26T05:46:10.609Z,6.00
2022-11-26T05:48:39.746Z,6.00
2022-11-26T05:51:07.790Z,6.00
2022-11-26T05:53:35.776Z,6.00
2022-11-26T05:56:05.706Z,6.00
2022-11-26T05:58:33.870Z,6.00
2022-11-26T06:01:01.790Z,6.00
2022-11-26T06:03:30.074Z,6.00
2022-11-26T06:05:58.118Z,6.00
2022-11-26T06:08:26.181Z,6.00
2022-11-26T06:10:54.278Z,6.00
2022-11-26T06:13:23.791Z,6.00
2022-11-26T06:15:51.788Z,6.00
2022-11-26T06:18:19.983Z,6.00
2022-11-26T06:20:47.848Z,5.90
2022-11-26T06:23:15.789Z,5.90
2022-11-26T06:25:44.006Z,5.90
2022-11-26T06:28:11.878Z,6.00
2022-11-26T06:30:41.156Z,5.90
2022-11-26T06:33:09.068Z,5.90
2022-11-26T06:35:37.024Z,5.90
2022-11-26T06:38:05.196Z,5.90
2022-11-26T06:40:33.206Z,5.90
2022-11-26T06:43:01.087Z,5.90
2022-11-26T06:45:28.970Z,5.90
2022-11-26T06:47:58.505Z,5.90
2022-11-26T06:50:26.805Z,5.90
2022-11-26T06:52:54.848Z,5.90
2022-11-26T06:55:23.300Z,5.90
2022-11-26T06:57:51.899Z,5.90
2022-11-26T07:00:20.285Z,5.90
2022-11-26T07:02:48.604Z,5.90
2022-11-26T07:05:18.138Z,5.90
2022-11-26T07:07:46.116Z,5.90
2022-11-26T07:10:14.189Z,5.90
2022-11-26T07:12:42.104Z,5.90
2022-11-26T07:15:10.767Z,5.90
2022-11-26T07:17:38.761Z,6.00
2022-11-26T07:20:07.766Z,6.00
2022-11-26T07:22:37.045Z,6.00
2022-11-26T07:25:24.112Z,6.00
2022-11-26T07:27:52.559Z,6.00
2022-11-26T07:30:20.916Z,6.00
2022-11-26T07:32:48.963Z,6.10
2022-11-26T07:35:16.946Z,6.10
2022-11-26T07:37:46.500Z,6.10
2022-11-26T07:40:15.132Z,6.20
2022-11-26T07:42:43.043Z,6.20
2022-11-26T07:45:11.409Z,6.30
2022-11-26T07:47:39.304Z,6.30
2022-11-26T07:50:08.137Z,6.30
2022-11-26T07:52:36.970Z,6.30
2022-11-26T07:55:09.586Z,6.40
2022-11-26T07:57:40.368Z,6.40
2022-11-26T08:00:09.109Z,6.40
2022-11-26T08:02:37.027Z,6.40
2022-11-26T08:05:05.409Z,6.50
2022-11-26T08:07:33.434Z,6.60
2022-11-26T08:10:01.293Z,6.60
2022-11-26T08:12:30.761Z,6.60
2022-11-26T08:14:58.648Z,6.70
2022-11-26T08:17:26.480Z,6.70
2022-11-26T08:19:54.439Z,6.80
2022-11-26T08:22:22.303Z,6.80
2022-11-26T08:24:50.890Z,6.80
2022-11-26T08:27:19.180Z,6.80
2022-11-26T08:29:48.490Z,6.90
2022-11-26T08:32:16.527Z,7.00
2022-11-26T08:34:44.435Z,7.00
2022-11-26T08:37:12.663Z,7.10
2022-11-26T08:39:40.881Z,7.10
2022-11-26T08:42:08.783Z,7.20
2022-11-26T08:44:37.083Z,7.20
2022-11-26T08:47:06.490Z,7.30
2022-11-26T08:49:34.520Z,7.30
2022-11-26T08:52:02.949Z,7.30
2022-11-26T08:54:30.948Z,7.40
2022-11-26T08:56:59.033Z,7.50
2022-11-26T08:59:26.950Z,7.50
2022-11-26T09:01:54.850Z,7.60
2022-11-26T09:04:24.192Z,7.60
2022-11-26T09:06:52.192Z,7.60
2022-11-26T09:09:20.284Z,7.70
2022-11-26T09:11:49.827Z,7.70
2022-11-26T09:14:18.974Z,7.70
2022-11-26T09:16:47.067Z,7.80
2022-11-26T09:19:15.395Z,7.90
2022-11-26T09:21:45.028Z,7.90
2022-11-26T09:24:13.124Z,8.00
2022-11-26T09:26:41.405Z,8.00
2022-11-26T09:29:09.608Z,8.10
2022-11-26T09:31:49.718Z,8.10
2022-11-26T09:34:25.631Z,8.20
2022-11-26T09:36:55.063Z,8.20
2022-11-26T09:39:23.198Z,8.30
2022-11-26T09:41:55.969Z,8.30
2022-11-26T09:44:29.524Z,8.40
2022-11-26T09:47:15.716Z,8.40
2022-11-26T09:49:57.606Z,8.50
2022-11-26T09:52:28.026Z,8.50
2022-11-26T09:54:59.774Z,8.50
2022-11-26T09:57:31.105Z,8.60
2022-11-26T10:00:16.797Z,8.60
2022-11-26T10:02:44.954Z,8.60
2022-11-26T10:05:17.077Z,8.60
2022-11-26T10:07:54.829Z,8.60
2022-11-26T10:10:25.556Z,8.60
2022-11-26T10:15:53.895Z,8.60
2022-11-26T10:18:26.881Z,8.70
2022-11-26T10:21:05.521Z,8.80
2022-11-26T10:23:51.023Z,8.80
2022-11-26T10:26:21.920Z,8.90
2022-11-26T10:28:53.020Z,9.00
2022-11-26T10:31:51.705Z,9.00
2022-11-26T10:34:33.366Z,9.10
2022-11-26T10:37:04.221Z,9.10
2022-11-26T10:39:33.784Z,9.20
2022-11-26T10:42:05.287Z,9.20
2022-11-26T10:44:37.558Z,9.20
2022-11-26T10:47:28.883Z,9.30
2022-11-26T10:49:58.560Z,9.30
2022-11-26T10:52:28.834Z,9.40
2022-11-26T10:55:20.056Z,9.50
2022-11-26T10:57:51.437Z,9.50
2022-11-26T11:00:38.211Z,9.50
2022-11-26T11:03:08.198Z,9.70
2022-11-26T11:05:37.017Z,9.70
2022-11-26T11:08:05.300Z,9.80
2022-11-26T11:10:45.705Z,9.90
2022-11-26T11:13:15.843Z,9.90
2022-11-26T11:15:47.431Z,10.00
2022-11-26T11:18:19.180Z,10.00
2022-11-26T11:21:01.903Z,10.00
2022-11-26T11:24:00.181Z,10.10
2022-11-26T11:26:26.739Z,10.10
2022-11-26T11:28:56.732Z,10.10
2022-11-26T11:31:26.458Z,10.20
2022-11-26T11:34:13.256Z,10.20
2022-11-26T11:36:46.306Z,10.30
2022-11-26T11:39:28.219Z,10.40
2022-11-26T11:41:59.187Z,10.40
2022-11-26T11:44:31.925Z,10.40
2022-11-26T11:47:15.438Z,10.40
2022-11-26T11:49:47.828Z,10.40
2022-11-26T11:52:22.778Z,10.40
2022-11-26T11:54:57.807Z,10.40
2022-11-26T11:57:43.701Z,10.40
2022-11-26T12:00:14.645Z,10.50
2022-11-26T12:03:01.390Z,10.50
2022-11-26T12:05:44.382Z,10.60
2022-11-26T12:08:19.142Z,10.60
2022-11-26T13:16:03.348Z,11.70
2022-11-26T13:18:33.316Z,11.80
2022-11-26T13:21:10.398Z,11.80
2022-11-26T13:23:45.140Z,11.80
2022-11-26T13:26:28.055Z,11.80
2022-11-26T13:29:06.101Z,11.80
2022-11-26T13:31:44.482Z,11.80
2022-11-26T13:34:23.361Z,11.80
2022-11-26T13:37:10.829Z,11.70
2022-11-26T13:39:56.872Z,11.60
2022-11-26T13:42:34.201Z,11.50
2022-11-26T13:45:06.913Z,11.40
2022-11-26T13:47:43.013Z,11.40
2022-11-26T13:50:13.626Z,11.30
2022-11-26T13:52:44.352Z,11.20
2022-11-26T13:55:16.057Z,11.20
2022-11-26T13:57:45.501Z,11.20
2022-11-26T14:00:24.548Z,11.20
2022-11-26T14:02:54.354Z,11.20
2022-11-26T14:05:22.815Z,11.20
2022-11-26T14:07:53.266Z,11.20
2022-11-26T14:10:41.499Z,11.20
2022-11-26T14:13:14.091Z,11.20
2022-11-26T14:15:52.420Z,11.20
2022-11-26T14:18:41.790Z,11.20
2022-11-26T14:21:14.850Z,11.20
2022-11-26T14:23:43.801Z,11.20
2022-11-26T14:26:12.771Z,11.20
2022-11-26T14:28:40.910Z,11.20
2022-11-26T14:31:13.355Z,11.20
2022-11-26T14:33:47.075Z,11.10
2022-11-26T14:36:22.025Z,11.10
2022-11-26T14:39:04.405Z,11.10
2022-11-26T14:41:34.505Z,11.00
2022-11-26T14:44:09.380Z,11.00
2022-11-26T14:46:38.075Z,11.00
2022-11-26T14:49:15.042Z,10.90
2022-11-26T14:51:46.194Z,10.80
2022-11-26T14:54:17.319Z,10.80
2022-11-26T14:56:46.661Z,10.80
2022-11-26T14:59:15.633Z,10.70
2022-11-26T15:01:44.793Z,10.70
2022-11-26T15:04:23.337Z,10.60
2022-11-26T15:06:53.002Z,10.60
2022-11-26T15:09:24.579Z,10.50
2022-11-26T15:12:02.120Z,10.50
2022-11-26T15:14:35.067Z,10.50
2022-11-26T15:17:03.577Z,10.40
2022-11-26T15:19:33.237Z,10.40
2022-11-26T15:22:04.050Z,10.40
2022-11-26T15:24:32.269Z,10.30
2022-11-26T15:27:00.986Z,10.20
2022-11-26T15:29:33.388Z,10.20
2022-11-26T15:32:01.622Z,10.10
2022-11-26T15:34:30.596Z,10.10
2022-11-26T15:36:58.516Z,10.00
2022-11-26T15:39:29.529Z,10.00
2022-11-26T15:42:01.594Z,10.00
2022-11-26T15:44:30.251Z,9.90
2022-11-26T15:47:00.335Z,9.80
2022-11-26T15:49:30.122Z,9.80
2022-11-26T15:51:59.948Z,9.70
2022-11-26T15:54:43.388Z,9.60
2022-11-26T15:57:31.170Z,9.60
2022-11-26T16:00:03.254Z,9.50
2022-11-26T16:02:33.333Z,9.40
2022-11-26T16:05:01.734Z,9.40
2022-11-26T16:07:30.676Z,9.40
2022-11-26T16:10:21.370Z,9.30
2022-11-26T16:13:04.646Z,9.30
2022-11-26T16:15:33.042Z,9.30
2022-11-26T16:18:01.147Z,9.30
2022-11-26T16:20:30.574Z,9.30
2022-11-26T16:22:59.736Z,9.20
2022-11-26T16:25:30.355Z,9.20
2022-11-26T16:28:06.477Z,9.20
2022-11-26T16:30:35.043Z,9.20
2022-11-26T16:33:03.394Z,9.20
2022-11-26T16:35:47.855Z,9.10
2022-11-26T16:38:19.177Z,9.10
2022-11-26T16:40:49.031Z,9.10
2022-11-26T16:43:17.950Z,9.00
2022-11-26T16:45:46.482Z,9.00
2022-11-26T16:48:19.079Z,8.90
2022-11-26T16:50:49.082Z,8.90
2022-11-26T16:53:20.262Z,8.80
2022-11-26T16:55:54.154Z,8.80
2022-11-26T16:58:26.505Z,8.80
2022-11-26T17:00:57.371Z,8.80
2022-11-26T17:03:34.139Z,8.80
2022-11-26T17:06:05.541Z,8.80
2022-11-26T17:08:35.761Z,8.80
2022-11-26T17:11:07.424Z,8.80
2022-11-26T17:13:35.439Z,8.80
2022-11-26T17:16:04.387Z,8.80
2022-11-26T17:18:33.109Z,8.80
2022-11-26T17:21:01.253Z,8.80
2022-11-26T17:23:29.283Z,8.80
2022-11-26T17:25:57.337Z,8.80
2022-11-26T17:28:26.863Z,8.80
2022-11-26T17:30:56.053Z,8.80
2022-11-26T17:33:24.584Z,8.80
2022-11-26T17:35:52.858Z,8.80
2022-11-26T17:38:22.053Z,8.90
2022-11-26T17:40:50.264Z,8.80
2022-11-26T17:43:18.364Z,8.80
2022-11-26T17:45:48.018Z,8.80
2022-11-26T17:48:16.285Z,8.80
2022-11-26T17:50:44.415Z,8.80
2022-11-26T17:53:14.237Z,8.80
2022-11-26T17:55:42.848Z,8.80
2022-11-26T17:58:14.404Z,8.80
2022-11-26T18:00:42.408Z,8.70
2022-11-26T18:03:12.119Z,8.70
2022-11-26T18:05:42.245Z,8.70
2022-11-26T18:08:10.841Z,8.70
2022-11-26T18:10:41.145Z,8.70
2022-11-26T18:13:09.657Z,8.70
2022-11-26T18:15:38.107Z,8.60
2022-11-26T18:18:07.608Z,8.60
2022-11-26T18:20:37.247Z,8.60
2022-11-26T18:23:05.122Z,8.60
2022-11-26T18:25:34.966Z,8.50
2022-11-26T18:28:03.236Z,8.50
2022-11-26T18:30:31.252Z,8.50
2022-11-26T18:32:59.214Z,8.40
2022-11-26T18:35:27.112Z,8.40
2022-11-26T18:37:56.449Z,8.40
2022-11-26T18:40:24.484Z,8.30
2022-11-26T18:42:53.067Z,8.30
2022-11-26T18:45:21.016Z,8.20
2022-11-26T18:47:49.290Z,8.20
2022-11-26T18:50:17.500Z,8.20
2022-11-26T18:52:45.427Z,8.20
2022-11-26T18:55:15.745Z,8.20
2022-11-26T18:57:43.802Z,8.10
2022-11-26T19:00:12.381Z,8.10
2022-11-26T19:02:40.549Z,8.10
2022-11-26T19:05:09.542Z,8.10
2022-11-26T19:07:38.381Z,8.10
2022-11-26T19:10:07.244Z,8.10
2022-11-26T19:12:36.981Z,8.10
2022-11-26T19:15:05.547Z,8.10
2022-11-26T19:17:33.512Z,8.10
2022-11-26T19:20:01.642Z,8.10
2022-11-26T19:22:29.548Z,8.10
2022-11-26T19:24:57.935Z,8.00
2022-11-26T19:27:26.213Z,8.00
2022-11-26T19:29:55.602Z,8.00
2022-11-26T19:32:23.688Z,8.00
2022-11-26T19:34:52.127Z,7.90
2022-11-26T19:37:20.308Z,7.90
2022-11-26T19:39:48.285Z,7.90
2022-11-26T19:42:16.499Z,7.90
2022-11-26T19:44:46.495Z,7.90
2022-11-26T19:47:15.999Z,7.90
2022-11-26T19:49:44.027Z,7.90
2022-11-26T19:52:12.082Z,7.90
2022-11-26T19:54:40.137Z,7.90
2022-11-26T19:57:08.185Z,7.90
2022-11-26T19:59:36.265Z,7.90
2022-11-26T20:02:04.329Z,7.90
2022-11-26T20:04:33.839Z,7.90
2022-11-26T20:07:01.912Z,7.90
2022-11-26T20:09:30.123Z,7.90
2022-11-26T20:11:58.832Z,7.90
2022-11-26T20:14:26.921Z,7.90
2022-11-26T20:17:00.532Z,8.00
2022-11-26T20:19:29.237Z,8.00
2022-11-26T20:21:58.701Z,8.00
2022-11-26T20:24:26.741Z,8.00
2022-11-26T20:26:55.115Z,8.00
2022-11-26T20:29:23.419Z,8.00
2022-11-26T20:31:52.091Z,8.00
2022-11-26T20:34:21.561Z,8.00
2022-11-26T20:36:49.846Z,8.00
2022-11-26T20:39:20.553Z,8.00
2022-11-26T20:41:48.938Z,8.10
2022-11-26T20:44:17.272Z,8.10
2022-11-26T20:46:45.164Z,8.10
2022-11-26T20:49:13.088Z,8.10
2022-11-26T20:51:41.153Z,8.10
2022-11-26T20:54:09.111Z,8.10
2022-11-26T20:56:38.615Z,8.00
2022-11-26T20:59:09.604Z,8.10
2022-11-26T21:01:38.603Z,8.10
2022-11-26T21:04:07.071Z,8.00
2022-11-26T21:06:35.976Z,8.00
2022-11-26T21:09:05.345Z,8.00
2022-11-26T21:11:33.205Z,8.00
2022-11-26T21:14:02.808Z,8.00
2022-11-26T21:16:31.368Z,7.90
2022-11-26T21:18:59.943Z,7.90
2022-11-26T21:21:28.934Z,8.00
2022-11-26T21:23:58.317Z,8.00
2022-11-26T21:26:27.436Z,8.10
2022-11-26T21:28:56.613Z,8.10
2022-11-26T21:31:30.202Z,8.10
2022-11-26T21:34:04.746Z,8.10
2022-11-26T21:36:34.953Z,8.20
2022-11-26T21:39:07.625Z,8.10
2022-11-26T21:41:36.785Z,8.10
2022-11-26T21:44:05.346Z,8.10
2022-11-26T21:46:41.405Z,8.00
2022-11-26T21:49:10.898Z,8.00
2022-11-26T21:51:42.247Z,8.00
2022-11-26T21:54:10.416Z,8.00
2022-11-26T21:56:38.333Z,8.10
2022-11-26T21:59:06.352Z,8.00
2022-11-26T22:01:36.883Z,8.00
2022-11-26T22:04:07.243Z,8.00
2022-11-26T22:06:39.703Z,8.00
2022-11-26T22:09:13.171Z,8.00
2022-11-26T22:11:42.940Z,8.00
2022-11-26T22:14:12.737Z,8.00
2022-11-26T22:16:42.484Z,8.00
2022-11-26T22:19:10.437Z,8.00
2022-11-26T22:21:39.638Z,8.00
2022-11-26T22:24:08.930Z,8.00
2022-11-26T22:26:36.912Z,8.00
2022-11-26T22:29:05.210Z,8.00
2022-11-26T22:31:34.316Z,8.00
2022-11-26T22:34:04.717Z,8.00
2022-11-26T22:36:32.998Z,8.10
2022-11-26T22:39:02.016Z,7.90
2022-11-26T22:41:30.014Z,8.00
2022-11-26T22:43:59.344Z,8.00
2022-11-26T22:46:27.704Z,7.90
2022-11-26T22:48:57.146Z,7.90
2022-11-26T22:51:27.258Z,7.90
2022-11-26T22:53:56.021Z,7.90
2022-11-26T22:56:24.517Z,8.00
2022-11-26T22:58:52.814Z,7.90
2022-11-26T23:01:22.042Z,8.00
2022-11-26T23:03:50.748Z,7.90
2022-11-26T23:06:19.947Z,7.90
2022-11-26T23:08:49.736Z,7.90
2022-11-26T23:11:18.672Z,7.80
2022-11-26T23:13:47.551Z,7.80
2022-11-26T23:16:15.989Z,7.80
2022-11-26T23:18:44.261Z,7.80
2022-11-26T23:21:13.008Z,7.80
2022-11-26T23:23:41.601Z,7.70
2022-11-26T23:26:23.138Z,7.70
2022-11-26T23:28:53.595Z,7.70
2022-11-26T23:31:22.878Z,7.70
2022-11-26T23:33:51.131Z,7.60
2022-11-26T23:36:19.708Z,7.60
2022-11-26T23:38:47.685Z,7.70
2022-11-26T23:41:17.376Z,7.60
2022-11-26T23:43:45.659Z,7.50
2022-11-26T23:46:15.803Z,7.50
2022-11-26T23:48:43.951Z,7.50
2022-11-26T23:51:13.639Z,7.40
2022-11-26T23:53:42.839Z,7.30
2022-11-26T23:56:12.551Z,7.20
2022-11-26T23:58:42.431Z,7.20
